sensor_id;sensor_type;location;lat;lon;timestamp;P1;durP1;ratioP1;P2;durP2;ratioP2
61385;SDS011;47256;18.904;-99.054;2023-06-22T00:02:21;38.08;;;10.75;;
61385;SDS011;47256;18.904;-99.054;2023-06-22T00:04:49;29.17;;;8.82;;
61385;SDS011;47256;18.904;-99.054;2023-06-22T00:07:17;16.00;;;8.00;;
61385;SDS011;47256;18.904;-99.054;2023-06-22T00:09:44;24.42;;;9.13;;
61385;SDS011;47256;18.904;-99.054;2023-06-22T00:12:11;18.98;;;8.38;;
61385;SDS011;47256;18.904;-99.054;2023-06-22T00:14:38;23.75;;;9.43;;
61385;SDS011;47256;18.904;-99.054;2023-06-22T00:17:06;20.88;;;8.00;;
61385;SDS011;47256;18.904;-99.054;2023-06-22T00:19:33;35.95;;;8.80;;
61385;SDS011;47256;18.904;-99.054;2023-06-22T00:22:01;16.70;;;8.63;;
61385;SDS011;47256;18.904;-99.054;2023-06-22T00:24:29;24.77;;;8.27;;
61385;SDS011;47256;18.904;-99.054;2023-06-22T00:26:56;24.40;;;9.25;;
61385;SDS011;47256;18.904;-99.054;2023-06-22T00:29:23;18.00;;;9.35;;
61385;SDS011;47256;18.904;-99.054;2023-06-22T00:31:50;18.90;;;8.13;;
61385;SDS011;47256;18.904;-99.054;2023-06-22T00:34:18;21.27;;;8.10;;
61385;SDS011;47256;18.904;-99.054;2023-06-22T00:36:45;26.17;;;9.43;;
61385;SDS011;47256;18.904;-99.054;2023-06-22T00:39:12;27.08;;;8.70;;
61385;SDS011;47256;18.904;-99.054;2023-06-22T00:41:39;30.88;;;9.57;;
61385;SDS011;47256;18.904;-99.054;2023-06-22T00:44:06;18.23;;;8.93;;
61385;SDS011;47256;18.904;-99.054;2023-06-22T00:46:34;23.33;;;8.75;;
61385;SDS011;47256;18.904;-99.054;2023-06-22T00:49:17;16.25;;;9.38;;
61385;SDS011;47256;18.904;-99.054;2023-06-22T00:51:44;24.52;;;11.30;;
61385;SDS011;47256;18.904;-99.054;2023-06-22T00:54:12;34.22;;;10.63;;
61385;SDS011;47256;18.904;-99.054;2023-06-22T00:56:42;24.70;;;9.85;;
61385;SDS011;47256;18.904;-99.054;2023-06-22T00:59:10;35.55;;;10.27;;
61385;SDS011;47256;18.904;-99.054;2023-06-22T01:01:38;38.13;;;11.32;;
61385;SDS011;47256;18.904;-99.054;2023-06-22T01:04:07;34.65;;;11.73;;
61385;SDS011;47256;18.904;-99.054;2023-06-22T01:06:45;27.65;;;12.18;;
61385;SDS011;47256;18.904;-99.054;2023-06-22T01:09:27;24.77;;;10.88;;
61385;SDS011;47256;18.904;-99.054;2023-06-22T01:12:02;22.60;;;11.02;;
61385;SDS011;47256;18.904;-99.054;2023-06-22T01:17:08;28.30;;;11.23;;
61385;SDS011;47256;18.904;-99.054;2023-06-22T01:19:39;23.25;;;10.85;;
61385;SDS011;47256;18.904;-99.054;2023-06-22T01:22:28;18.90;;;9.48;;
61385;SDS011;47256;18.904;-99.054;2023-06-22T01:25:13;21.38;;;9.30;;
61385;SDS011;47256;18.904;-99.054;2023-06-22T01:30:33;22.87;;;9.07;;
61385;SDS011;47256;18.904;-99.054;2023-06-22T01:33:03;19.95;;;11.10;;
61385;SDS011;47256;18.904;-99.054;2023-06-22T01:35:32;22.85;;;9.85;;
61385;SDS011;47256;18.904;-99.054;2023-06-22T01:38:00;20.88;;;10.40;;
61385;SDS011;47256;18.904;-99.054;2023-06-22T01:40:28;22.27;;;10.98;;
61385;SDS011;47256;18.904;-99.054;2023-06-22T01:42:59;25.15;;;11.48;;
61385;SDS011;47256;18.904;-99.054;2023-06-22T01:45:28;22.30;;;10.15;;
61385;SDS011;47256;18.904;-99.054;2023-06-22T01:47:56;27.42;;;9.98;;
61385;SDS011;47256;18.904;-99.054;2023-06-22T01:50:24;16.58;;;8.35;;
61385;SDS011;47256;18.904;-99.054;2023-06-22T01:52:52;18.15;;;9.20;;
61385;SDS011;47256;18.904;-99.054;2023-06-22T01:55:19;18.80;;;9.38;;
61385;SDS011;47256;18.904;-99.054;2023-06-22T01:57:49;36.75;;;10.98;;
61385;SDS011;47256;18.904;-99.054;2023-06-22T02:00:19;32.03;;;11.10;;
61385;SDS011;47256;18.904;-99.054;2023-06-22T02:05:23;22.50;;;9.95;;
61385;SDS011;47256;18.904;-99.054;2023-06-22T02:08:02;20.92;;;10.68;;
61385;SDS011;47256;18.904;-99.054;2023-06-22T02:10:32;35.83;;;10.18;;
61385;SDS011;47256;18.904;-99.054;2023-06-22T02:13:04;36.00;;;10.93;;
61385;SDS011;47256;18.904;-99.054;2023-06-22T02:15:33;28.08;;;10.77;;
61385;SDS011;47256;18.904;-99.054;2023-06-22T02:18:01;28.77;;;10.80;;
61385;SDS011;47256;18.904;-99.054;2023-06-22T02:20:29;20.80;;;10.90;;
61385;SDS011;47256;18.904;-99.054;2023-06-22T02:22:56;48.00;;;13.20;;
61385;SDS011;47256;18.904;-99.054;2023-06-22T02:25:23;23.50;;;11.93;;
61385;SDS011;47256;18.904;-99.054;2023-06-22T02:27:50;21.25;;;11.90;;
61385;SDS011;47256;18.904;-99.054;2023-06-22T02:30:17;26.77;;;12.45;;
61385;SDS011;47256;18.904;-99.054;2023-06-22T02:32:45;20.90;;;12.00;;
61385;SDS011;47256;18.904;-99.054;2023-06-22T02:35:15;24.42;;;12.45;;
61385;SDS011;47256;18.904;-99.054;2023-06-22T02:37:42;28.50;;;11.40;;
61385;SDS011;47256;18.904;-99.054;2023-06-22T02:40:10;31.77;;;12.52;;
61385;SDS011;47256;18.904;-99.054;2023-06-22T02:42:39;35.00;;;14.88;;
61385;SDS011;47256;18.904;-99.054;2023-06-22T02:45:08;31.80;;;12.90;;
61385;SDS011;47256;18.904;-99.054;2023-06-22T02:47:35;27.67;;;13.02;;
61385;SDS011;47256;18.904;-99.054;2023-06-22T02:50:02;28.05;;;13.07;;
61385;SDS011;47256;18.904;-99.054;2023-06-22T02:52:32;26.25;;;13.10;;
61385;SDS011;47256;18.904;-99.054;2023-06-22T02:55:03;34.58;;;13.10;;
61385;SDS011;47256;18.904;-99.054;2023-06-22T02:57:31;22.52;;;11.98;;
61385;SDS011;47256;18.904;-99.054;2023-06-22T02:59:59;36.00;;;12.57;;
61385;SDS011;47256;18.904;-99.054;2023-06-22T03:02:26;26.35;;;11.82;;
61385;SDS011;47256;18.904;-99.054;2023-06-22T03:04:55;41.50;;;13.75;;
61385;SDS011;47256;18.904;-99.054;2023-06-22T03:07:22;31.35;;;11.27;;
61385;SDS011;47256;18.904;-99.054;2023-06-22T03:09:51;29.35;;;13.05;;
61385;SDS011;47256;18.904;-99.054;2023-06-22T03:12:18;44.85;;;14.02;;
61385;SDS011;47256;18.904;-99.054;2023-06-22T03:14:54;44.97;;;12.57;;
61385;SDS011;47256;18.904;-99.054;2023-06-22T03:17:21;30.25;;;11.38;;
61385;SDS011;47256;18.904;-99.054;2023-06-22T03:19:48;30.65;;;13.07;;
61385;SDS011;47256;18.904;-99.054;2023-06-22T03:22:16;27.58;;;13.70;;
61385;SDS011;47256;18.904;-99.054;2023-06-22T03:24:43;35.40;;;15.93;;
61385;SDS011;47256;18.904;-99.054;2023-06-22T03:27:12;96.47;;;23.67;;
61385;SDS011;47256;18.904;-99.054;2023-06-22T03:29:40;49.47;;;20.02;;
61385;SDS011;47256;18.904;-99.054;2023-06-22T03:32:07;38.00;;;14.98;;
61385;SDS011;47256;18.904;-99.054;2023-06-22T03:34:36;43.28;;;15.65;;
61385;SDS011;47256;18.904;-99.054;2023-06-22T03:37:03;31.63;;;15.50;;
61385;SDS011;47256;18.904;-99.054;2023-06-22T03:39:31;29.30;;;13.10;;
61385;SDS011;47256;18.904;-99.054;2023-06-22T03:41:59;28.17;;;12.60;;
61385;SDS011;47256;18.904;-99.054;2023-06-22T03:44:26;22.38;;;12.10;;
61385;SDS011;47256;18.904;-99.054;2023-06-22T03:46:54;43.35;;;14.02;;
61385;SDS011;47256;18.904;-99.054;2023-06-22T03:49:21;29.55;;;11.88;;
61385;SDS011;47256;18.904;-99.054;2023-06-22T03:51:49;30.58;;;12.15;;
61385;SDS011;47256;18.904;-99.054;2023-06-22T03:54:16;28.27;;;11.45;;
61385;SDS011;47256;18.904;-99.054;2023-06-22T03:56:43;29.30;;;10.48;;
61385;SDS011;47256;18.904;-99.054;2023-06-22T03:59:10;31.90;;;12.32;;
61385;SDS011;47256;18.904;-99.054;2023-06-22T04:01:37;30.88;;;13.30;;
61385;SDS011;47256;18.904;-99.054;2023-06-22T04:04:05;25.05;;;11.82;;
61385;SDS011;47256;18.904;-99.054;2023-06-22T04:06:33;33.35;;;12.45;;
61385;SDS011;47256;18.904;-99.054;2023-06-22T04:09:00;26.30;;;11.45;;
61385;SDS011;47256;18.904;-99.054;2023-06-22T04:11:28;27.27;;;12.48;;
61385;SDS011;47256;18.904;-99.054;2023-06-22T04:13:55;21.95;;;12.30;;
61385;SDS011;47256;18.904;-99.054;2023-06-22T04:16:23;20.80;;;10.25;;
61385;SDS011;47256;18.904;-99.054;2023-06-22T04:18:50;25.48;;;10.93;;
61385;SDS011;47256;18.904;-99.054;2023-06-22T04:21:18;26.30;;;11.45;;
61385;SDS011;47256;18.904;-99.054;2023-06-22T04:23:46;28.02;;;10.82;;
61385;SDS011;47256;18.904;-99.054;2023-06-22T04:26:13;40.85;;;13.23;;
61385;SDS011;47256;18.904;-99.054;2023-06-22T04:28:41;40.50;;;14.48;;
61385;SDS011;47256;18.904;-99.054;2023-06-22T04:31:08;46.55;;;17.08;;
61385;SDS011;47256;18.904;-99.054;2023-06-22T04:33:35;77.68;;;27.52;;
61385;SDS011;47256;18.904;-99.054;2023-06-22T04:36:04;72.03;;;25.05;;
61385;SDS011;47256;18.904;-99.054;2023-06-22T04:38:31;41.33;;;18.55;;
61385;SDS011;47256;18.904;-99.054;2023-06-22T04:41:01;59.40;;;23.60;;
61385;SDS011;47256;18.904;-99.054;2023-06-22T04:43:29;103.53;;;37.20;;
61385;SDS011;47256;18.904;-99.054;2023-06-22T04:45:57;110.68;;;40.80;;
61385;SDS011;47256;18.904;-99.054;2023-06-22T04:48:29;102.55;;;37.53;;
61385;SDS011;47256;18.904;-99.054;2023-06-22T04:51:00;86.60;;;30.25;;
61385;SDS011;47256;18.904;-99.054;2023-06-22T04:53:30;59.60;;;20.27;;
61385;SDS011;47256;18.904;-99.054;2023-06-22T04:55:58;29.83;;;14.45;;
61385;SDS011;47256;18.904;-99.054;2023-06-22T04:58:25;19.45;;;9.93;;
61385;SDS011;47256;18.904;-99.054;2023-06-22T05:00:58;24.55;;;12.05;;
61385;SDS011;47256;18.904;-99.054;2023-06-22T05:03:26;42.67;;;16.90;;
61385;SDS011;47256;18.904;-99.054;2023-06-22T05:05:53;40.35;;;15.10;;
61385;SDS011;47256;18.904;-99.054;2023-06-22T05:08:21;40.25;;;14.25;;
61385;SDS011;47256;18.904;-99.054;2023-06-22T05:10:52;36.05;;;14.48;;
61385;SDS011;47256;18.904;-99.054;2023-06-22T05:13:19;30.70;;;12.13;;
61385;SDS011;47256;18.904;-99.054;2023-06-22T05:15:47;32.28;;;11.52;;
61385;SDS011;47256;18.904;-99.054;2023-06-22T05:18:15;19.02;;;8.65;;
61385;SDS011;47256;18.904;-99.054;2023-06-22T05:20:42;16.85;;;9.35;;
61385;SDS011;47256;18.904;-99.054;2023-06-22T05:23:09;18.40;;;8.00;;
61385;SDS011;47256;18.904;-99.054;2023-06-22T05:25:36;19.15;;;9.07;;
61385;SDS011;47256;18.904;-99.054;2023-06-22T05:28:04;18.50;;;8.93;;
61385;SDS011;47256;18.904;-99.054;2023-06-22T05:30:31;22.70;;;8.75;;
61385;SDS011;47256;18.904;-99.054;2023-06-22T05:32:58;16.02;;;8.38;;
61385;SDS011;47256;18.904;-99.054;2023-06-22T05:35:26;20.55;;;8.82;;
61385;SDS011;47256;18.904;-99.054;2023-06-22T05:37:53;17.20;;;8.80;;
61385;SDS011;47256;18.904;-99.054;2023-06-22T05:40:21;21.17;;;8.48;;
61385;SDS011;47256;18.904;-99.054;2023-06-22T05:42:48;24.60;;;8.75;;
61385;SDS011;47256;18.904;-99.054;2023-06-22T05:45:15;18.10;;;7.35;;
61385;SDS011;47256;18.904;-99.054;2023-06-22T05:47:42;14.15;;;7.85;;
61385;SDS011;47256;18.904;-99.054;2023-06-22T05:50:10;15.07;;;7.85;;
61385;SDS011;47256;18.904;-99.054;2023-06-22T05:52:37;14.18;;;8.18;;
61385;SDS011;47256;18.904;-99.054;2023-06-22T05:55:06;12.80;;;7.18;;
61385;SDS011;47256;18.904;-99.054;2023-06-22T05:57:33;18.90;;;8.73;;
61385;SDS011;47256;18.904;-99.054;2023-06-22T06:00:00;12.32;;;7.03;;
61385;SDS011;47256;18.904;-99.054;2023-06-22T06:02:32;14.52;;;6.80;;
61385;SDS011;47256;18.904;-99.054;2023-06-22T06:04:59;22.10;;;7.82;;
61385;SDS011;47256;18.904;-99.054;2023-06-22T06:07:28;17.23;;;7.53;;
61385;SDS011;47256;18.904;-99.054;2023-06-22T06:09:56;14.48;;;7.63;;
61385;SDS011;47256;18.904;-99.054;2023-06-22T06:12:23;8.88;;;7.22;;
61385;SDS011;47256;18.904;-99.054;2023-06-22T06:14:50;18.63;;;9.48;;
61385;SDS011;47256;18.904;-99.054;2023-06-22T06:17:19;60.30;;;28.42;;
61385;SDS011;47256;18.904;-99.054;2023-06-22T06:19:46;41.63;;;18.25;;
61385;SDS011;47256;18.904;-99.054;2023-06-22T06:22:13;40.00;;;16.52;;
61385;SDS011;47256;18.904;-99.054;2023-06-22T06:24:40;52.20;;;27.20;;
61385;SDS011;47256;18.904;-99.054;2023-06-22T06:27:08;39.45;;;18.10;;
61385;SDS011;47256;18.904;-99.054;2023-06-22T06:29:35;33.15;;;15.65;;
61385;SDS011;47256;18.904;-99.054;2023-06-22T06:32:02;36.17;;;17.00;;
61385;SDS011;47256;18.904;-99.054;2023-06-22T06:34:30;42.78;;;16.40;;
61385;SDS011;47256;18.904;-99.054;2023-06-22T06:36:58;41.20;;;17.65;;
61385;SDS011;47256;18.904;-99.054;2023-06-22T06:39:25;31.95;;;15.18;;
61385;SDS011;47256;18.904;-99.054;2023-06-22T06:41:52;25.98;;;10.35;;
61385;SDS011;47256;18.904;-99.054;2023-06-22T06:44:20;24.00;;;10.63;;
61385;SDS011;47256;18.904;-99.054;2023-06-22T06:46:49;32.53;;;12.98;;
61385;SDS011;47256;18.904;-99.054;2023-06-22T06:49:16;32.13;;;12.57;;
61385;SDS011;47256;18.904;-99.054;2023-06-22T06:51:43;35.70;;;14.13;;
61385;SDS011;47256;18.904;-99.054;2023-06-22T06:54:10;31.40;;;13.98;;
61385;SDS011;47256;18.904;-99.054;2023-06-22T06:56:38;34.83;;;14.32;;
61385;SDS011;47256;18.904;-99.054;2023-06-22T06:59:05;34.92;;;13.88;;
61385;SDS011;47256;18.904;-99.054;2023-06-22T07:01:33;24.02;;;12.68;;
61385;SDS011;47256;18.904;-99.054;2023-06-22T07:04:02;27.38;;;12.90;;
61385;SDS011;47256;18.904;-99.054;2023-06-22T07:06:29;23.13;;;11.20;;
61385;SDS011;47256;18.904;-99.054;2023-06-22T07:08:59;20.60;;;11.07;;
61385;SDS011;47256;18.904;-99.054;2023-06-22T07:11:26;19.08;;;9.82;;
61385;SDS011;47256;18.904;-99.054;2023-06-22T07:13:54;15.82;;;8.68;;
61385;SDS011;47256;18.904;-99.054;2023-06-22T07:16:22;18.55;;;8.27;;
61385;SDS011;47256;18.904;-99.054;2023-06-22T07:18:51;15.80;;;9.95;;
61385;SDS011;47256;18.904;-99.054;2023-06-22T07:21:18;15.27;;;10.32;;
61385;SDS011;47256;18.904;-99.054;2023-06-22T07:23:45;18.02;;;10.48;;
61385;SDS011;47256;18.904;-99.054;2023-06-22T07:26:12;18.17;;;10.57;;
61385;SDS011;47256;18.904;-99.054;2023-06-22T07:28:39;15.68;;;10.35;;
61385;SDS011;47256;18.904;-99.054;2023-06-22T07:31:06;15.35;;;8.82;;
61385;SDS011;47256;18.904;-99.054;2023-06-22T07:33:34;15.70;;;9.85;;
61385;SDS011;47256;18.904;-99.054;2023-06-22T07:36:01;16.63;;;8.73;;
61385;SDS011;47256;18.904;-99.054;2023-06-22T07:38:33;25.42;;;9.02;;
61385;SDS011;47256;18.904;-99.054;2023-06-22T07:41:01;15.60;;;9.77;;
61385;SDS011;47256;18.904;-99.054;2023-06-22T07:43:31;14.55;;;9.13;;
61385;SDS011;47256;18.904;-99.054;2023-06-22T07:46:00;15.57;;;9.35;;
61385;SDS011;47256;18.904;-99.054;2023-06-22T07:48:27;15.90;;;8.95;;
61385;SDS011;47256;18.904;-99.054;2023-06-22T07:50:54;13.35;;;8.13;;
61385;SDS011;47256;18.904;-99.054;2023-06-22T07:53:22;16.80;;;7.72;;
61385;SDS011;47256;18.904;-99.054;2023-06-22T07:55:49;14.50;;;8.75;;
61385;SDS011;47256;18.904;-99.054;2023-06-22T07:58:17;16.88;;;9.68;;
61385;SDS011;47256;18.904;-99.054;2023-06-22T08:00:46;14.35;;;9.10;;
61385;SDS011;47256;18.904;-99.054;2023-06-22T08:03:16;13.80;;;8.95;;
61385;SDS011;47256;18.904;-99.054;2023-06-22T08:05:43;21.63;;;9.82;;
61385;SDS011;47256;18.904;-99.054;2023-06-22T08:08:11;18.45;;;10.35;;
61385;SDS011;47256;18.904;-99.054;2023-06-22T08:10:40;19.08;;;10.70;;
61385;SDS011;47256;18.904;-99.054;2023-06-22T08:13:08;13.85;;;9.35;;
61385;SDS011;47256;18.904;-99.054;2023-06-22T08:15:36;24.42;;;9.43;;
61385;SDS011;47256;18.904;-99.054;2023-06-22T08:18:04;20.13;;;9.73;;
61385;SDS011;47256;18.904;-99.054;2023-06-22T08:20:31;25.70;;;10.23;;
61385;SDS011;47256;18.904;-99.054;2023-06-22T08:22:59;20.92;;;9.27;;
61385;SDS011;47256;18.904;-99.054;2023-06-22T08:25:34;22.52;;;8.80;;
61385;SDS011;47256;18.904;-99.054;2023-06-22T08:28:03;21.42;;;9.43;;
61385;SDS011;47256;18.904;-99.054;2023-06-22T08:30:31;16.08;;;9.00;;
61385;SDS011;47256;18.904;-99.054;2023-06-22T08:32:58;20.15;;;9.65;;
61385;SDS011;47256;18.904;-99.054;2023-06-22T08:35:25;16.27;;;9.70;;
61385;SDS011;47256;18.904;-99.054;2023-06-22T08:37:53;25.23;;;10.70;;
61385;SDS011;47256;18.904;-99.054;2023-06-22T08:40:22;23.48;;;12.10;;
61385;SDS011;47256;18.904;-99.054;2023-06-22T08:42:50;28.52;;;11.68;;
61385;SDS011;47256;18.904;-99.054;2023-06-22T08:45:17;29.05;;;11.93;;
61385;SDS011;47256;18.904;-99.054;2023-06-22T08:47:44;31.08;;;12.05;;
61385;SDS011;47256;18.904;-99.054;2023-06-22T08:50:12;44.17;;;11.32;;
61385;SDS011;47256;18.904;-99.054;2023-06-22T08:52:39;19.52;;;10.00;;
61385;SDS011;47256;18.904;-99.054;2023-06-22T08:55:07;19.70;;;9.93;;
61385;SDS011;47256;18.904;-99.054;2023-06-22T08:57:35;17.17;;;8.45;;
61385;SDS011;47256;18.904;-99.054;2023-06-22T09:00:07;20.25;;;9.45;;
61385;SDS011;47256;18.904;-99.054;2023-06-22T09:02:55;20.27;;;9.07;;
61385;SDS011;47256;18.904;-99.054;2023-06-22T09:05:25;18.50;;;8.93;;
61385;SDS011;47256;18.904;-99.054;2023-06-22T09:07:52;23.10;;;9.05;;
61385;SDS011;47256;18.904;-99.054;2023-06-22T09:10:22;17.00;;;10.10;;
61385;SDS011;47256;18.904;-99.054;2023-06-22T09:12:49;19.98;;;10.85;;
61385;SDS011;47256;18.904;-99.054;2023-06-22T09:15:18;25.50;;;12.40;;
61385;SDS011;47256;18.904;-99.054;2023-06-22T09:17:45;24.63;;;12.13;;
61385;SDS011;47256;18.904;-99.054;2023-06-22T09:20:13;24.25;;;12.30;;
61385;SDS011;47256;18.904;-99.054;2023-06-22T09:22:40;24.08;;;12.30;;
61385;SDS011;47256;18.904;-99.054;2023-06-22T09:25:08;26.80;;;12.95;;
61385;SDS011;47256;18.904;-99.054;2023-06-22T09:27:35;21.92;;;12.45;;
61385;SDS011;47256;18.904;-99.054;2023-06-22T09:30:02;22.95;;;12.88;;
61385;SDS011;47256;18.904;-99.054;2023-06-22T09:32:30;26.40;;;12.85;;
61385;SDS011;47256;18.904;-99.054;2023-06-22T09:34:57;21.20;;;10.35;;
61385;SDS011;47256;18.904;-99.054;2023-06-22T09:37:24;17.45;;;10.90;;
61385;SDS011;47256;18.904;-99.054;2023-06-22T09:39:51;20.95;;;11.75;;
61385;SDS011;47256;18.904;-99.054;2023-06-22T09:42:18;18.77;;;10.40;;
61385;SDS011;47256;18.904;-99.054;2023-06-22T09:44:47;20.73;;;10.13;;
61385;SDS011;47256;18.904;-99.054;2023-06-22T09:47:14;20.65;;;10.13;;
61385;SDS011;47256;18.904;-99.054;2023-06-22T09:49:41;16.65;;;9.70;;
61385;SDS011;47256;18.904;-99.054;2023-06-22T09:52:08;21.73;;;10.05;;
61385;SDS011;47256;18.904;-99.054;2023-06-22T09:54:37;24.35;;;11.98;;
61385;SDS011;47256;18.904;-99.054;2023-06-22T09:57:04;27.38;;;10.90;;
61385;SDS011;47256;18.904;-99.054;2023-06-22T09:59:31;20.25;;;10.35;;
61385;SDS011;47256;18.904;-99.054;2023-06-22T10:01:59;24.63;;;10.95;;
61385;SDS011;47256;18.904;-99.054;2023-06-22T10:04:27;25.08;;;9.75;;
61385;SDS011;47256;18.904;-99.054;2023-06-22T10:06:54;15.55;;;9.57;;
61385;SDS011;47256;18.904;-99.054;2023-06-22T10:09:21;93.90;;;16.13;;
61385;SDS011;47256;18.904;-99.054;2023-06-22T10:11:48;16.60;;;10.05;;
61385;SDS011;47256;18.904;-99.054;2023-06-22T10:14:16;30.23;;;11.07;;
61385;SDS011;47256;18.904;-99.054;2023-06-22T10:16:43;19.63;;;9.13;;
61385;SDS011;47256;18.904;-99.054;2023-06-22T10:19:11;26.70;;;9.80;;
61385;SDS011;47256;18.904;-99.054;2023-06-22T10:21:38;15.63;;;9.25;;
61385;SDS011;47256;18.904;-99.054;2023-06-22T10:24:07;16.65;;;9.32;;
61385;SDS011;47256;18.904;-99.054;2023-06-22T10:26:35;20.35;;;9.43;;
61385;SDS011;47256;18.904;-99.054;2023-06-22T10:29:03;22.33;;;9.85;;
61385;SDS011;47256;18.904;-99.054;2023-06-22T10:31:30;20.50;;;10.15;;
61385;SDS011;47256;18.904;-99.054;2023-06-22T10:33:58;17.42;;;9.50;;
61385;SDS011;47256;18.904;-99.054;2023-06-22T10:36:25;22.67;;;10.52;;
61385;SDS011;47256;18.904;-99.054;2023-06-22T10:38:52;17.38;;;9.65;;
61385;SDS011;47256;18.904;-99.054;2023-06-22T10:41:21;16.98;;;9.88;;
61385;SDS011;47256;18.904;-99.054;2023-06-22T10:43:48;20.08;;;9.93;;
61385;SDS011;47256;18.904;-99.054;2023-06-22T10:46:16;14.82;;;10.32;;
61385;SDS011;47256;18.904;-99.054;2023-06-22T10:48:43;21.98;;;10.75;;
61385;SDS011;47256;18.904;-99.054;2023-06-22T10:51:10;23.58;;;11.07;;
61385;SDS011;47256;18.904;-99.054;2023-06-22T10:53:37;19.77;;;10.82;;
61385;SDS011;47256;18.904;-99.054;2023-06-22T10:56:04;18.23;;;9.93;;
61385;SDS011;47256;18.904;-99.054;2023-06-22T10:58:32;17.85;;;10.27;;
61385;SDS011;47256;18.904;-99.054;2023-06-22T11:00:59;21.65;;;12.73;;
61385;SDS011;47256;18.904;-99.054;2023-06-22T11:03:26;21.55;;;12.20;;
61385;SDS011;47256;18.904;-99.054;2023-06-22T11:05:54;24.27;;;11.68;;
61385;SDS011;47256;18.904;-99.054;2023-06-22T11:08:21;17.80;;;11.07;;
61385;SDS011;47256;18.904;-99.054;2023-06-22T11:10:50;24.00;;;11.82;;
61385;SDS011;47256;18.904;-99.054;2023-06-22T11:13:18;20.55;;;11.48;;
61385;SDS011;47256;18.904;-99.054;2023-06-22T11:15:45;19.58;;;11.20;;
61385;SDS011;47256;18.904;-99.054;2023-06-22T11:18:13;25.50;;;11.70;;
61385;SDS011;47256;18.904;-99.054;2023-06-22T11:20:40;15.98;;;9.77;;
61385;SDS011;47256;18.904;-99.054;2023-06-22T11:23:08;18.33;;;10.63;;
61385;SDS011;47256;18.904;-99.054;2023-06-22T11:25:39;16.83;;;10.45;;
61385;SDS011;47256;18.904;-99.054;2023-06-22T11:28:09;16.52;;;10.63;;
61385;SDS011;47256;18.904;-99.054;2023-06-22T11:30:36;20.58;;;9.95;;
61385;SDS011;47256;18.904;-99.054;2023-06-22T11:33:03;15.48;;;10.07;;
61385;SDS011;47256;18.904;-99.054;2023-06-22T11:35:30;21.73;;;10.55;;
61385;SDS011;47256;18.904;-99.054;2023-06-22T11:37:58;16.52;;;10.68;;
61385;SDS011;47256;18.904;-99.054;2023-06-22T11:40:25;21.17;;;12.80;;
61385;SDS011;47256;18.904;-99.054;2023-06-22T11:42:52;21.65;;;12.48;;
61385;SDS011;47256;18.904;-99.054;2023-06-22T11:45:19;25.73;;;13.02;;
61385;SDS011;47256;18.904;-99.054;2023-06-22T11:47:47;23.98;;;11.70;;
61385;SDS011;47256;18.904;-99.054;2023-06-22T11:50:14;22.83;;;12.05;;
61385;SDS011;47256;18.904;-99.054;2023-06-22T11:52:41;21.02;;;12.25;;
61385;SDS011;47256;18.904;-99.054;2023-06-22T11:55:08;23.20;;;11.30;;
61385;SDS011;47256;18.904;-99.054;2023-06-22T11:57:37;17.15;;;10.35;;
61385;SDS011;47256;18.904;-99.054;2023-06-22T12:00:05;22.27;;;11.13;;
61385;SDS011;47256;18.904;-99.054;2023-06-22T12:02:42;25.67;;;12.02;;
61385;SDS011;47256;18.904;-99.054;2023-06-22T12:05:12;24.42;;;13.68;;
61385;SDS011;47256;18.904;-99.054;2023-06-22T12:07:40;71.00;;;31.13;;
61385;SDS011;47256;18.904;-99.054;2023-06-22T12:10:07;34.67;;;19.65;;
61385;SDS011;47256;18.904;-99.054;2023-06-22T12:12:34;32.40;;;20.80;;
61385;SDS011;47256;18.904;-99.054;2023-06-22T12:15:02;54.17;;;27.90;;
61385;SDS011;47256;18.904;-99.054;2023-06-22T12:17:30;67.35;;;37.15;;
61385;SDS011;47256;18.904;-99.054;2023-06-22T12:19:58;71.40;;;41.47;;
61385;SDS011;47256;18.904;-99.054;2023-06-22T12:22:25;41.38;;;24.42;;
61385;SDS011;47256;18.904;-99.054;2023-06-22T12:24:52;31.25;;;18.35;;
61385;SDS011;47256;18.904;-99.054;2023-06-22T12:27:20;29.17;;;16.17;;
61385;SDS011;47256;18.904;-99.054;2023-06-22T12:29:48;31.92;;;17.35;;
61385;SDS011;47256;18.904;-99.054;2023-06-22T12:32:15;34.65;;;16.75;;
61385;SDS011;47256;18.904;-99.054;2023-06-22T12:34:43;33.15;;;15.88;;
61385;SDS011;47256;18.904;-99.054;2023-06-22T12:37:10;35.85;;;18.73;;
61385;SDS011;47256;18.904;-99.054;2023-06-22T12:39:39;33.75;;;14.98;;
61385;SDS011;47256;18.904;-99.054;2023-06-22T12:42:07;31.80;;;18.58;;
61385;SDS011;47256;18.904;-99.054;2023-06-22T12:44:35;48.40;;;21.17;;
61385;SDS011;47256;18.904;-99.054;2023-06-22T12:47:03;46.40;;;20.35;;
61385;SDS011;47256;18.904;-99.054;2023-06-22T12:49:30;78.15;;;41.50;;
61385;SDS011;47256;18.904;-99.054;2023-06-22T12:51:58;56.75;;;31.65;;
61385;SDS011;47256;18.904;-99.054;2023-06-22T12:54:25;66.07;;;33.72;;
61385;SDS011;47256;18.904;-99.054;2023-06-22T12:56:52;69.38;;;31.48;;
61385;SDS011;47256;18.904;-99.054;2023-06-22T12:59:19;102.57;;;53.25;;
61385;SDS011;47256;18.904;-99.054;2023-06-22T13:01:47;74.30;;;39.55;;
61385;SDS011;47256;18.904;-99.054;2023-06-22T13:04:15;58.55;;;26.00;;
61385;SDS011;47256;18.904;-99.054;2023-06-22T13:06:44;75.18;;;21.88;;
61385;SDS011;47256;18.904;-99.054;2023-06-22T13:09:15;34.47;;;16.15;;
61385;SDS011;47256;18.904;-99.054;2023-06-22T13:11:45;47.78;;;17.60;;
61385;SDS011;47256;18.904;-99.054;2023-06-22T13:14:13;38.35;;;16.33;;
61385;SDS011;47256;18.904;-99.054;2023-06-22T13:16:42;48.67;;;16.63;;
61385;SDS011;47256;18.904;-99.054;2023-06-22T13:19:09;49.80;;;17.95;;
61385;SDS011;47256;18.904;-99.054;2023-06-22T13:21:36;35.28;;;15.32;;
61385;SDS011;47256;18.904;-99.054;2023-06-22T13:24:03;32.53;;;14.32;;
61385;SDS011;47256;18.904;-99.054;2023-06-22T13:26:32;36.60;;;15.82;;
61385;SDS011;47256;18.904;-99.054;2023-06-22T13:28:59;69.45;;;36.63;;
61385;SDS011;47256;18.904;-99.054;2023-06-22T13:31:26;61.05;;;32.50;;
61385;SDS011;47256;18.904;-99.054;2023-06-22T13:33:53;36.17;;;16.25;;
61385;SDS011;47256;18.904;-99.054;2023-06-22T13:36:21;25.27;;;14.38;;
61385;SDS011;47256;18.904;-99.054;2023-06-22T13:38:49;41.83;;;19.17;;
61385;SDS011;47256;18.904;-99.054;2023-06-22T13:41:16;42.65;;;19.65;;
61385;SDS011;47256;18.904;-99.054;2023-06-22T13:43:43;52.72;;;27.80;;
61385;SDS011;47256;18.904;-99.054;2023-06-22T13:46:10;54.92;;;28.63;;
61385;SDS011;47256;18.904;-99.054;2023-06-22T13:48:37;51.83;;;23.58;;
61385;SDS011;47256;18.904;-99.054;2023-06-22T13:51:05;41.03;;;20.88;;
61385;SDS011;47256;18.904;-99.054;2023-06-22T13:53:32;34.00;;;19.13;;
61385;SDS011;47256;18.904;-99.054;2023-06-22T13:55:59;34.20;;;19.98;;
61385;SDS011;47256;18.904;-99.054;2023-06-22T13:58:27;30.30;;;16.38;;
61385;SDS011;47256;18.904;-99.054;2023-06-22T14:03:47;29.02;;;16.50;;
61385;SDS011;47256;18.904;-99.054;2023-06-22T14:06:15;32.90;;;16.42;;
61385;SDS011;47256;18.904;-99.054;2023-06-22T14:08:42;31.95;;;17.10;;
61385;SDS011;47256;18.904;-99.054;2023-06-22T14:11:10;33.20;;;15.57;;
61385;SDS011;47256;18.904;-99.054;2023-06-22T14:13:37;23.95;;;14.50;;
61385;SDS011;47256;18.904;-99.054;2023-06-22T14:16:07;27.38;;;14.15;;
61385;SDS011;47256;18.904;-99.054;2023-06-22T14:18:34;25.88;;;13.68;;